BAW3ZL GMMX-EGLL
Flight info
| Callsign | BAW3ZL |
|---|---|
| Flight time | N/A |
| Altitude | 38000 |
| Route | MABAP UR722 SAK UG5 KORIS L27 VJF N10 HIJ M30 PARKA N858 DGO N867 BLV P87 BADRU P152 NENEM DCT PEXOD DCT YURZI UL14 TEPRA UN867 MOKOR UN873 BAKUL UY110 UPALO/N0436F340 UP87 ROXOG |
| Aircraft | A20N/M-SDGHIJ1LRWXY/SB1 |
Departure
| Time | 2026-05-08 16:41 |
|---|---|
| Airport | Marrakesh Menara Airport (GMMX) |
Arrival
| Time | N/A |
|---|---|
| Airport | London Heathrow Airport (EGLL) |
| Time | Latitude | Longitude | Altitude | Speed | Heading |
|---|---|---|---|---|---|
| 2026-05-08 16:39 | 31.60540 | -8.02046 | 1551 ft | 0 kts | 301° |
| 2026-05-08 16:40 | 31.60580 | -8.02360 | 1549 ft | 77 kts | 275° |
| 2026-05-08 16:40 | 31.60655 | -8.03240 | 1533 ft | 139 kts | 275° |
| 2026-05-08 16:40 | 31.60764 | -8.04547 | 1669 ft | 176 kts | 276° |
| 2026-05-08 16:41 | 31.60915 | -8.06100 | 2046 ft | 204 kts | 275° |
| 2026-05-08 16:41 | 31.61075 | -8.07843 | 2295 ft | 219 kts | 276° |
| 2026-05-08 16:41 | 31.61233 | -8.09595 | 2576 ft | 220 kts | 276° |
| 2026-05-08 16:42 | 31.61556 | -8.13366 | 4143 ft | 233 kts | 276° |
| 2026-05-08 16:42 | 31.61718 | -8.15262 | 5145 ft | 237 kts | 276° |
| 2026-05-08 16:42 | 31.62148 | -8.17154 | 5969 ft | 244 kts | 302° |
| 2026-05-08 16:42 | 31.63438 | -8.18440 | 6731 ft | 255 kts | 337° |
| 2026-05-08 16:43 | 31.65234 | -8.18689 | 7432 ft | 269 kts | 3° |
| 2026-05-08 16:43 | 31.67101 | -8.18371 | 8242 ft | 274 kts | 10° |
| 2026-05-08 16:43 | 31.68977 | -8.17923 | 9038 ft | 281 kts | 12° |
| 2026-05-08 16:43 | 31.70946 | -8.17381 | 9705 ft | 292 kts | 13° |
| 2026-05-08 16:44 | 31.72894 | -8.16861 | 10519 ft | 293 kts | 12° |
| 2026-05-08 16:44 | 31.74909 | -8.16336 | 11297 ft | 297 kts | 11° |
| 2026-05-08 16:44 | 31.76963 | -8.15807 | 12042 ft | 301 kts | 11° |
| 2026-05-08 16:44 | 31.79004 | -8.15282 | 12780 ft | 305 kts | 10° |
| 2026-05-08 16:45 | 31.81084 | -8.14804 | 13514 ft | 308 kts | 5° |
| 2026-05-08 16:45 | 31.83243 | -8.14643 | 14187 ft | 307 kts | 353° |
| 2026-05-08 16:45 | 31.85380 | -8.14844 | 14585 ft | 321 kts | 349° |
| 2026-05-08 16:45 | 31.87658 | -8.15158 | 14788 ft | 342 kts | 348° |
| 2026-05-08 16:46 | 31.90121 | -8.15572 | 14992 ft | 362 kts | 347° |
| 2026-05-08 16:46 | 31.92655 | -8.16032 | 15204 ft | 381 kts | 347° |
| 2026-05-08 16:46 | 31.95328 | -8.16525 | 15739 ft | 387 kts | 346° |
| 2026-05-08 16:46 | 31.97973 | -8.17012 | 16419 ft | 389 kts | 346° |
| 2026-05-08 16:47 | 32.00653 | -8.17506 | 17065 ft | 392 kts | 346° |
| 2026-05-08 16:47 | 32.03366 | -8.18008 | 17733 ft | 395 kts | 345° |
| 2026-05-08 16:47 | 32.06097 | -8.18514 | 18320 ft | 398 kts | 345° |
| 2026-05-08 16:47 | 32.08831 | -8.19021 | 18869 ft | 401 kts | 345° |
| 2026-05-08 16:48 | 32.11620 | -8.19411 | 19391 ft | 409 kts | 351° |
| 2026-05-08 16:48 | 32.14513 | -8.19347 | 19938 ft | 419 kts | 0° |
| 2026-05-08 16:48 | 32.17399 | -8.18893 | 20467 ft | 424 kts | 3° |
| 2026-05-08 16:48 | 32.20365 | -8.18403 | 20989 ft | 428 kts | 2° |
| 2026-05-08 16:49 | 32.23208 | -8.17942 | 21496 ft | 432 kts | 2° |
| 2026-05-08 16:49 | 32.26204 | -8.17459 | 22035 ft | 435 kts | 2° |
| 2026-05-08 16:49 | 32.29183 | -8.16978 | 22543 ft | 439 kts | 2° |
| 2026-05-08 16:49 | 32.32213 | -8.16488 | 23049 ft | 443 kts | 2° |
| 2026-05-08 16:50 | 32.35297 | -8.15988 | 23537 ft | 446 kts | 2° |
| 2026-05-08 16:50 | 32.38392 | -8.15486 | 23996 ft | 448 kts | 2° |
| 2026-05-08 16:50 | 32.41452 | -8.14989 | 24450 ft | 451 kts | 2° |
| 2026-05-08 16:50 | 32.44579 | -8.14480 | 24887 ft | 453 kts | 2° |
| 2026-05-08 16:51 | 32.47747 | -8.13964 | 25328 ft | 456 kts | 2° |
| 2026-05-08 16:51 | 32.50601 | -8.13499 | 25721 ft | 457 kts | 2° |
| 2026-05-08 16:51 | 32.53770 | -8.12982 | 26109 ft | 460 kts | 2° |
| 2026-05-08 16:51 | 32.56986 | -8.12459 | 26502 ft | 463 kts | 2° |
| 2026-05-08 16:52 | 32.60153 | -8.11943 | 26892 ft | 466 kts | 2° |
| 2026-05-08 16:52 | 32.63384 | -8.11415 | 27294 ft | 468 kts | 2° |
| 2026-05-08 16:52 | 32.66618 | -8.10886 | 27678 ft | 470 kts | 2° |
| 2026-05-08 16:52 | 32.68584 | -8.10564 | 27894 ft | 471 kts | 2° |
| 2026-05-08 16:53 | 32.75109 | -8.09495 | 28619 ft | 476 kts | 2° |
| 2026-05-08 16:53 | 32.78379 | -8.08959 | 28960 ft | 478 kts | 2° |
| 2026-05-08 16:53 | 32.81694 | -8.08415 | 29276 ft | 480 kts | 2° |
| 2026-05-08 16:54 | 32.85034 | -8.07867 | 29591 ft | 482 kts | 2° |
| 2026-05-08 16:54 | 32.88324 | -8.07326 | 29944 ft | 484 kts | 2° |
| 2026-05-08 16:54 | 32.91613 | -8.06555 | 30228 ft | 491 kts | 10° |
| 2026-05-08 16:54 | 32.94844 | -8.05272 | 30535 ft | 498 kts | 18° |
| 2026-05-08 16:55 | 32.95912 | -8.04725 | 30637 ft | 500 kts | 20° |
| 2026-05-08 16:55 | 32.99017 | -8.02790 | 30912 ft | 505 kts | 25° |
| 2026-05-08 16:55 | 33.02062 | -8.00779 | 31254 ft | 504 kts | 24° |
| 2026-05-08 16:55 | 33.05127 | -7.98769 | 31641 ft | 503 kts | 24° |
| 2026-05-08 16:56 | 33.08210 | -7.96749 | 32051 ft | 501 kts | 24° |
| 2026-05-08 16:56 | 33.11263 | -7.94745 | 32476 ft | 499 kts | 24° |
| 2026-05-08 16:56 | 33.14307 | -7.92743 | 32851 ft | 497 kts | 24° |
| 2026-05-08 16:56 | 33.17312 | -7.90764 | 33218 ft | 496 kts | 24° |
| 2026-05-08 16:57 | 33.19808 | -7.89118 | 33520 ft | 495 kts | 24° |
| 2026-05-08 16:57 | 33.22938 | -7.87053 | 33912 ft | 493 kts | 24° |
| 2026-05-08 16:57 | 33.25390 | -7.85434 | 34163 ft | 491 kts | 24° |
| 2026-05-08 16:57 | 33.28554 | -7.83343 | 34459 ft | 490 kts | 24° |
| 2026-05-08 16:58 | 33.31546 | -7.81365 | 34717 ft | 490 kts | 24° |
| 2026-05-08 16:58 | 33.34502 | -7.79409 | 35001 ft | 488 kts | 23° |
| 2026-05-08 16:58 | 33.37459 | -7.77451 | 35251 ft | 488 kts | 23° |
| 2026-05-08 16:58 | 33.40458 | -7.75463 | 35488 ft | 487 kts | 23° |
| 2026-05-08 16:59 | 33.43402 | -7.73510 | 35714 ft | 487 kts | 23° |
| 2026-05-08 16:59 | 33.46368 | -7.71541 | 35959 ft | 486 kts | 23° |
| 2026-05-08 16:59 | 33.48321 | -7.70243 | 36126 ft | 485 kts | 23° |
| 2026-05-08 16:59 | 33.52244 | -7.67635 | 36401 ft | 484 kts | 23° |
| 2026-05-08 17:00 | 33.54213 | -7.66357 | 36547 ft | 482 kts | 21° |
| 2026-05-08 17:00 | 33.57229 | -7.64522 | 36771 ft | 480 kts | 20° |
| 2026-05-08 17:00 | 33.60177 | -7.62774 | 36981 ft | 479 kts | 19° |
| 2026-05-08 17:00 | 33.64143 | -7.60414 | 37228 ft | 478 kts | 20° |
| 2026-05-08 17:01 | 33.66170 | -7.59198 | 37340 ft | 478 kts | 20° |
| 2026-05-08 17:01 | 33.70079 | -7.56835 | 37596 ft | 477 kts | 20° |
| 2026-05-08 17:01 | 33.72052 | -7.55638 | 37725 ft | 476 kts | 20° |
| 2026-05-08 17:01 | 33.75968 | -7.53258 | 37914 ft | 476 kts | 20° |
| 2026-05-08 17:02 | 33.80898 | -7.50257 | 37893 ft | 473 kts | 20° |
| 2026-05-08 17:02 | 33.86791 | -7.46666 | 37897 ft | 474 kts | 20° |
| 2026-05-08 17:03 | 33.92677 | -7.43075 | 37882 ft | 474 kts | 20° |
| 2026-05-08 17:03 | 33.98342 | -7.39611 | 37891 ft | 474 kts | 20° |
| 2026-05-08 17:04 | 34.04243 | -7.35999 | 37899 ft | 475 kts | 20° |
| 2026-05-08 17:04 | 34.09903 | -7.32529 | 37909 ft | 477 kts | 20° |
| 2026-05-08 17:05 | 34.15765 | -7.28927 | 37909 ft | 476 kts | 20° |
| 2026-05-08 17:05 | 34.21701 | -7.25271 | 37913 ft | 477 kts | 20° |
| 2026-05-08 17:06 | 34.27613 | -7.21623 | 37917 ft | 477 kts | 20° |
| 2026-05-08 17:06 | 34.33546 | -7.17958 | 37901 ft | 478 kts | 20° |
| 2026-05-08 17:07 | 34.39434 | -7.14314 | 37902 ft | 478 kts | 20° |
| 2026-05-08 17:07 | 34.45336 | -7.10655 | 37905 ft | 478 kts | 20° |
| 2026-05-08 17:08 | 34.51291 | -7.06958 | 37890 ft | 479 kts | 20° |
| 2026-05-08 17:08 | 34.57208 | -7.03279 | 37890 ft | 479 kts | 20° |
| 2026-05-08 17:09 | 34.63127 | -6.99607 | 37882 ft | 479 kts | 20° |
| 2026-05-08 17:09 | 34.69083 | -6.95970 | 37882 ft | 479 kts | 20° |
| 2026-05-08 17:10 | 34.75056 | -6.92316 | 37874 ft | 480 kts | 20° |
| 2026-05-08 17:10 | 34.80969 | -6.88685 | 37881 ft | 481 kts | 20° |
| 2026-05-08 17:11 | 34.86963 | -6.84996 | 37874 ft | 482 kts | 20° |
| 2026-05-08 17:11 | 34.92925 | -6.81321 | 37871 ft | 483 kts | 20° |
| 2026-05-08 17:12 | 34.98960 | -6.77595 | 37864 ft | 483 kts | 20° |
| 2026-05-08 17:12 | 35.04949 | -6.73891 | 37885 ft | 484 kts | 20° |
| 2026-05-08 17:13 | 35.10951 | -6.70174 | 37896 ft | 485 kts | 20° |
| 2026-05-08 17:13 | 35.16967 | -6.66441 | 37901 ft | 486 kts | 20° |
| 2026-05-08 17:14 | 35.23012 | -6.62683 | 37886 ft | 487 kts | 20° |
| 2026-05-08 17:14 | 35.29021 | -6.58942 | 37887 ft | 487 kts | 20° |
| 2026-05-08 17:15 | 35.35115 | -6.55142 | 37880 ft | 488 kts | 20° |
| 2026-05-08 17:15 | 35.41148 | -6.51373 | 37880 ft | 489 kts | 20° |
| 2026-05-08 17:16 | 35.47215 | -6.47553 | 37881 ft | 490 kts | 21° |
| 2026-05-08 17:16 | 35.53236 | -6.43612 | 37879 ft | 491 kts | 21° |
| 2026-05-08 17:17 | 35.59273 | -6.39652 | 37869 ft | 491 kts | 21° |
| 2026-05-08 17:17 | 35.65180 | -6.35786 | 37871 ft | 492 kts | 21° |
| 2026-05-08 17:18 | 35.71196 | -6.31847 | 37860 ft | 492 kts | 21° |
| 2026-05-08 17:18 | 35.77234 | -6.27893 | 37862 ft | 492 kts | 21° |
| 2026-05-08 17:19 | 35.83339 | -6.23918 | 37860 ft | 493 kts | 21° |
| 2026-05-08 17:19 | 35.89275 | -6.20075 | 37870 ft | 493 kts | 21° |
| 2026-05-08 17:20 | 35.94837 | -6.16484 | 37871 ft | 494 kts | 21° |
| 2026-05-08 17:20 | 36.00947 | -6.12526 | 37880 ft | 494 kts | 21° |
| 2026-05-08 17:21 | 36.07025 | -6.08578 | 37876 ft | 495 kts | 21° |
| 2026-05-08 17:21 | 36.13151 | -6.04601 | 37889 ft | 499 kts | 22° |
| 2026-05-08 17:22 | 36.19299 | -6.00600 | 37884 ft | 505 kts | 22° |
| 2026-05-08 17:22 | 36.25777 | -5.97495 | 37881 ft | 498 kts | 6° |
| 2026-05-08 17:23 | 36.32575 | -5.96074 | 37874 ft | 496 kts | 359° |
| 2026-05-08 17:23 | 36.39471 | -5.94836 | 37872 ft | 504 kts | 360° |
| 2026-05-08 17:24 | 36.46414 | -5.93589 | 37880 ft | 511 kts | 360° |
| 2026-05-08 17:24 | 36.53507 | -5.92325 | 37883 ft | 517 kts | 360° |
| 2026-05-08 17:25 | 36.60643 | -5.91048 | 37885 ft | 517 kts | 360° |
| 2026-05-08 17:25 | 36.67772 | -5.89771 | 37880 ft | 518 kts | 360° |
| 2026-05-08 17:26 | 36.74860 | -5.88502 | 37883 ft | 518 kts | 360° |
| 2026-05-08 17:26 | 36.81995 | -5.87222 | 37879 ft | 518 kts | 360° |
| 2026-05-08 17:27 | 36.89141 | -5.85938 | 37868 ft | 518 kts | 0° |
| 2026-05-08 17:27 | 36.96216 | -5.84665 | 37867 ft | 518 kts | 0° |
| 2026-05-08 17:28 | 37.03409 | -5.83367 | 37857 ft | 518 kts | 0° |
| 2026-05-08 17:28 | 37.10544 | -5.82078 | 37855 ft | 519 kts | 0° |
| 2026-05-08 17:29 | 37.17695 | -5.80784 | 37853 ft | 519 kts | 0° |
| 2026-05-08 17:29 | 37.24835 | -5.79488 | 37852 ft | 519 kts | 0° |
| 2026-05-08 17:30 | 37.31968 | -5.78191 | 37858 ft | 519 kts | 0° |
| 2026-05-08 17:30 | 37.39107 | -5.76836 | 37844 ft | 523 kts | 4° |
| 2026-05-08 17:31 | 37.46120 | -5.74126 | 37845 ft | 534 kts | 18° |
| 2026-05-08 17:31 | 37.52880 | -5.70076 | 37849 ft | 536 kts | 20° |
| 2026-05-08 17:32 | 37.59568 | -5.66053 | 37854 ft | 536 kts | 21° |
| 2026-05-08 17:32 | 37.66282 | -5.61991 | 37853 ft | 536 kts | 21° |
| 2026-05-08 17:33 | 37.73011 | -5.57900 | 37849 ft | 536 kts | 21° |
| 2026-05-08 17:33 | 37.79702 | -5.53822 | 37851 ft | 536 kts | 21° |
| 2026-05-08 17:34 | 37.86441 | -5.49708 | 37848 ft | 536 kts | 21° |
| 2026-05-08 17:34 | 37.93169 | -5.45590 | 37850 ft | 535 kts | 21° |
| 2026-05-08 17:35 | 37.99661 | -5.41611 | 37844 ft | 534 kts | 21° |
| 2026-05-08 17:35 | 38.06386 | -5.37481 | 37850 ft | 534 kts | 21° |
| 2026-05-08 17:36 | 38.13053 | -5.33376 | 37851 ft | 532 kts | 21° |
| 2026-05-08 17:36 | 38.19676 | -5.29292 | 37858 ft | 532 kts | 21° |
| 2026-05-08 17:37 | 38.26337 | -5.25175 | 37855 ft | 532 kts | 21° |
| 2026-05-08 17:37 | 38.32961 | -5.21072 | 37854 ft | 531 kts | 21° |
| 2026-05-08 17:38 | 38.39596 | -5.16955 | 37852 ft | 531 kts | 21° |
| 2026-05-08 17:38 | 38.46253 | -5.12866 | 37848 ft | 527 kts | 16° |
| 2026-05-08 17:39 | 38.53219 | -5.10659 | 37847 ft | 506 kts | 356° |
| 2026-05-08 17:39 | 38.56540 | -5.10563 | 37849 ft | 495 kts | 347° |
| 2026-05-08 17:39 | 38.59941 | -5.10912 | 37843 ft | 491 kts | 346° |
| 2026-05-08 17:40 | 38.66754 | -5.11601 | 37833 ft | 490 kts | 346° |
| 2026-05-08 17:40 | 38.73551 | -5.12285 | 37834 ft | 491 kts | 346° |
| 2026-05-08 17:41 | 38.80388 | -5.12984 | 37855 ft | 494 kts | 346° |
| 2026-05-08 17:41 | 38.87195 | -5.13679 | 37848 ft | 491 kts | 346° |
| 2026-05-08 17:42 | 38.94038 | -5.14371 | 37845 ft | 494 kts | 349° |
| 2026-05-08 17:42 | 38.97517 | -5.14216 | 37849 ft | 506 kts | 1° |
| 2026-05-08 17:42 | 39.00959 | -5.13233 | 37849 ft | 517 kts | 13° |
| 2026-05-08 17:43 | 39.04273 | -5.11417 | 37855 ft | 525 kts | 25° |
| 2026-05-08 17:43 | 39.07410 | -5.08900 | 37850 ft | 528 kts | 30° |
| 2026-05-08 17:43 | 39.13542 | -5.03808 | 37858 ft | 526 kts | 30° |
| 2026-05-08 17:44 | 39.19730 | -4.98683 | 37855 ft | 527 kts | 30° |
| 2026-05-08 17:44 | 39.25825 | -4.93623 | 37857 ft | 526 kts | 30° |
| 2026-05-08 17:45 | 39.32003 | -4.88482 | 37861 ft | 525 kts | 30° |
| 2026-05-08 17:45 | 39.38146 | -4.83358 | 37865 ft | 525 kts | 30° |
| 2026-05-08 17:46 | 39.44249 | -4.78256 | 37867 ft | 524 kts | 30° |
| 2026-05-08 17:46 | 39.50371 | -4.73127 | 37864 ft | 524 kts | 30° |
| 2026-05-08 17:47 | 39.56483 | -4.67996 | 37861 ft | 523 kts | 30° |
| 2026-05-08 17:47 | 39.61562 | -4.63726 | 37870 ft | 522 kts | 30° |
| 2026-05-08 17:48 | 39.68674 | -4.57731 | 37847 ft | 522 kts | 30° |
| 2026-05-08 17:48 | 39.74713 | -4.52629 | 37852 ft | 520 kts | 30° |
| 2026-05-08 17:49 | 39.80795 | -4.47480 | 37853 ft | 519 kts | 30° |
| 2026-05-08 17:49 | 39.86813 | -4.42374 | 37846 ft | 518 kts | 30° |
| 2026-05-08 17:50 | 39.92832 | -4.37257 | 37844 ft | 518 kts | 30° |
| 2026-05-08 17:50 | 39.99016 | -4.32476 | 37845 ft | 512 kts | 20° |
| 2026-05-08 17:51 | 40.05471 | -4.28576 | 37850 ft | 512 kts | 21° |
| 2026-05-08 17:51 | 40.11913 | -4.24635 | 37854 ft | 512 kts | 21° |
| 2026-05-08 17:52 | 40.18363 | -4.20687 | 37862 ft | 511 kts | 21° |
| 2026-05-08 17:53 | 40.28020 | -4.14766 | 37873 ft | 511 kts | 21° |
| 2026-05-08 17:53 | 40.34411 | -4.10838 | 37885 ft | 510 kts | 21° |
| 2026-05-08 17:54 | 40.40826 | -4.06887 | 37883 ft | 508 kts | 21° |
| 2026-05-08 17:54 | 40.47185 | -4.02961 | 37889 ft | 503 kts | 21° |
| 2026-05-08 17:55 | 40.53519 | -3.99044 | 37894 ft | 501 kts | 21° |
| 2026-05-08 17:55 | 40.59803 | -3.95150 | 37895 ft | 498 kts | 22° |
| 2026-05-08 17:56 | 40.66070 | -3.91258 | 37892 ft | 497 kts | 22° |
| 2026-05-08 17:56 | 40.72161 | -3.87469 | 37909 ft | 497 kts | 22° |
| 2026-05-08 17:57 | 40.78396 | -3.83580 | 37904 ft | 496 kts | 22° |
| 2026-05-08 17:57 | 40.84640 | -3.79676 | 37909 ft | 495 kts | 22° |
| 2026-05-08 17:58 | 40.90822 | -3.75806 | 37905 ft | 494 kts | 22° |
| 2026-05-08 17:58 | 40.96030 | -3.72539 | 37906 ft | 493 kts | 22° |
| 2026-05-08 17:59 | 41.02174 | -3.68676 | 37910 ft | 493 kts | 22° |
| 2026-05-08 17:59 | 41.08380 | -3.64768 | 37904 ft | 492 kts | 23° |
| 2026-05-08 18:00 | 41.14554 | -3.60874 | 37915 ft | 491 kts | 23° |
| 2026-05-08 18:00 | 41.23909 | -3.55626 | 37890 ft | 489 kts | 19° |
| 2026-05-08 18:01 | 41.30251 | -3.52242 | 37897 ft | 489 kts | 19° |
| 2026-05-08 18:01 | 41.36568 | -3.48801 | 37890 ft | 490 kts | 20° |
| 2026-05-08 18:02 | 41.42810 | -3.45377 | 37885 ft | 490 kts | 20° |
| 2026-05-08 18:02 | 41.49150 | -3.41890 | 37884 ft | 491 kts | 20° |
| 2026-05-08 18:03 | 41.55438 | -3.38425 | 37894 ft | 491 kts | 20° |
| 2026-05-08 18:03 | 41.61790 | -3.34919 | 37888 ft | 492 kts | 20° |
| 2026-05-08 18:04 | 41.68112 | -3.31421 | 37899 ft | 492 kts | 20° |
| 2026-05-08 18:04 | 41.74413 | -3.27927 | 37901 ft | 493 kts | 20° |
| 2026-05-08 18:05 | 41.80750 | -3.24406 | 37914 ft | 493 kts | 20° |
| 2026-05-08 18:05 | 41.87084 | -3.20878 | 37911 ft | 492 kts | 20° |
| 2026-05-08 18:06 | 41.93399 | -3.17353 | 37906 ft | 492 kts | 20° |
| 2026-05-08 18:06 | 41.99748 | -3.13802 | 37903 ft | 492 kts | 20° |
| 2026-05-08 18:07 | 42.06030 | -3.10281 | 37913 ft | 492 kts | 20° |
| 2026-05-08 18:07 | 42.12368 | -3.06720 | 37924 ft | 493 kts | 21° |
| 2026-05-08 18:08 | 42.18687 | -3.03163 | 37904 ft | 494 kts | 21° |
| 2026-05-08 18:08 | 42.24987 | -2.99609 | 37908 ft | 492 kts | 21° |
| 2026-05-08 18:09 | 42.31325 | -2.96025 | 37934 ft | 492 kts | 21° |
| 2026-05-08 18:09 | 42.37640 | -2.92447 | 37916 ft | 492 kts | 21° |
| 2026-05-08 18:10 | 42.44017 | -2.89429 | 37908 ft | 489 kts | 9° |
| 2026-05-08 18:10 | 42.50740 | -2.88400 | 37915 ft | 483 kts | 355° |
| 2026-05-08 18:11 | 42.57416 | -2.88730 | 37923 ft | 482 kts | 354° |
| 2026-05-08 18:11 | 42.64154 | -2.89057 | 37925 ft | 482 kts | 354° |
| 2026-05-08 18:12 | 42.70819 | -2.89395 | 37926 ft | 481 kts | 354° |
| 2026-05-08 18:12 | 42.77497 | -2.89744 | 37934 ft | 481 kts | 354° |
| 2026-05-08 18:13 | 42.84202 | -2.90096 | 37934 ft | 481 kts | 354° |
| 2026-05-08 18:13 | 42.90872 | -2.90447 | 37934 ft | 481 kts | 354° |
| 2026-05-08 18:14 | 42.97571 | -2.90800 | 37930 ft | 480 kts | 354° |
| 2026-05-08 18:14 | 43.04248 | -2.91152 | 37919 ft | 479 kts | 354° |
| 2026-05-08 18:15 | 43.10885 | -2.91504 | 37898 ft | 478 kts | 354° |
| 2026-05-08 18:15 | 43.17522 | -2.91855 | 37896 ft | 478 kts | 355° |
| 2026-05-08 18:16 | 43.24160 | -2.92207 | 37896 ft | 477 kts | 355° |
| 2026-05-08 18:16 | 43.30790 | -2.92099 | 37891 ft | 479 kts | 4° |
| 2026-05-08 18:17 | 43.37377 | -2.90463 | 37891 ft | 481 kts | 10° |
| 2026-05-08 18:17 | 43.43938 | -2.88560 | 37896 ft | 481 kts | 10° |
| 2026-05-08 18:18 | 43.50454 | -2.86666 | 37893 ft | 481 kts | 11° |
| 2026-05-08 18:18 | 43.56984 | -2.84745 | 37893 ft | 481 kts | 11° |
| 2026-05-08 18:19 | 43.63539 | -2.82809 | 37891 ft | 482 kts | 11° |
| 2026-05-08 18:19 | 43.70078 | -2.80898 | 37887 ft | 482 kts | 7° |
| 2026-05-08 18:20 | 43.73431 | -2.80589 | 37887 ft | 479 kts | 354° |
| 2026-05-08 18:20 | 43.76717 | -2.81227 | 37884 ft | 474 kts | 342° |
| 2026-05-08 18:20 | 43.79786 | -2.82760 | 37878 ft | 468 kts | 329° |
| 2026-05-08 18:20 | 43.82519 | -2.85108 | 37875 ft | 462 kts | 317° |
| 2026-05-08 18:21 | 43.84796 | -2.88157 | 37900 ft | 456 kts | 304° |
| 2026-05-08 18:21 | 43.86680 | -2.91717 | 37897 ft | 457 kts | 301° |
| 2026-05-08 18:21 | 43.90824 | -2.98473 | 37900 ft | 463 kts | 312° |
| 2026-05-08 18:22 | 43.95657 | -3.04374 | 37898 ft | 466 kts | 316° |
| 2026-05-08 18:22 | 44.00756 | -3.09969 | 37894 ft | 469 kts | 324° |
| 2026-05-08 18:23 | 44.06778 | -3.13599 | 37896 ft | 478 kts | 345° |
| 2026-05-08 18:23 | 44.13411 | -3.14193 | 37904 ft | 483 kts | 4° |
| 2026-05-08 18:24 | 44.20116 | -3.13477 | 37891 ft | 482 kts | 3° |
| 2026-05-08 18:24 | 44.26760 | -3.12798 | 37893 ft | 481 kts | 3° |
| 2026-05-08 18:25 | 44.33421 | -3.12112 | 37897 ft | 481 kts | 4° |
| 2026-05-08 18:25 | 44.40118 | -3.11416 | 37896 ft | 481 kts | 4° |
| 2026-05-08 18:26 | 44.46757 | -3.10725 | 37894 ft | 480 kts | 4° |
| 2026-05-08 18:26 | 44.53433 | -3.10028 | 37894 ft | 480 kts | 4° |
| 2026-05-08 18:27 | 44.58961 | -3.09450 | 37896 ft | 480 kts | 4° |
| 2026-05-08 18:27 | 44.66760 | -3.08632 | 37899 ft | 480 kts | 4° |
| 2026-05-08 18:28 | 44.73372 | -3.07937 | 37898 ft | 480 kts | 4° |
| 2026-05-08 18:28 | 44.80051 | -3.07234 | 37896 ft | 480 kts | 4° |
| 2026-05-08 18:29 | 44.86730 | -3.06528 | 37899 ft | 480 kts | 4° |
| 2026-05-08 18:29 | 44.93360 | -3.05827 | 37903 ft | 479 kts | 4° |
| 2026-05-08 18:30 | 44.99967 | -3.05126 | 37905 ft | 479 kts | 4° |
| 2026-05-08 18:30 | 45.06663 | -3.04414 | 37903 ft | 479 kts | 4° |
| 2026-05-08 18:31 | 45.13313 | -3.03705 | 37905 ft | 478 kts | 5° |
| 2026-05-08 18:31 | 45.19938 | -3.02997 | 37905 ft | 478 kts | 5° |
| 2026-05-08 18:32 | 45.26548 | -3.02273 | 37906 ft | 477 kts | 7° |
| 2026-05-08 18:32 | 45.33018 | -3.00446 | 37901 ft | 475 kts | 18° |
| 2026-05-08 18:33 | 45.39159 | -2.97080 | 37900 ft | 473 kts | 25° |
| 2026-05-08 18:33 | 45.45197 | -2.93339 | 37900 ft | 472 kts | 25° |
| 2026-05-08 18:34 | 45.51238 | -2.89588 | 37908 ft | 472 kts | 25° |
| 2026-05-08 18:34 | 45.57196 | -2.85859 | 37910 ft | 471 kts | 25° |
| 2026-05-08 18:35 | 45.63229 | -2.82067 | 37910 ft | 471 kts | 25° |
| 2026-05-08 18:35 | 45.69179 | -2.78318 | 37914 ft | 470 kts | 25° |
| 2026-05-08 18:36 | 45.75181 | -2.74529 | 37910 ft | 469 kts | 25° |
| 2026-05-08 18:36 | 45.81136 | -2.70760 | 37915 ft | 469 kts | 26° |
| 2026-05-08 18:37 | 45.87083 | -2.66988 | 37916 ft | 468 kts | 26° |
| 2026-05-08 18:37 | 45.93035 | -2.63204 | 37920 ft | 467 kts | 26° |
| 2026-05-08 18:38 | 45.98957 | -2.59430 | 37914 ft | 466 kts | 26° |